sensor_id;sensor_type;location;lat;lon;timestamp;P1;durP1;ratioP1;P2;durP2;ratioP2
11608;SDS011;5860;52.018;8.536;2023-03-20T00:02:17;38.97;;;22.17;;
11608;SDS011;5860;52.018;8.536;2023-03-20T00:04:46;40.40;;;21.17;;
11608;SDS011;5860;52.018;8.536;2023-03-20T00:07:16;37.70;;;21.20;;
11608;SDS011;5860;52.018;8.536;2023-03-20T00:09:43;46.60;;;20.57;;
11608;SDS011;5860;52.018;8.536;2023-03-20T00:12:14;39.70;;;20.43;;
11608;SDS011;5860;52.018;8.536;2023-03-20T00:14:47;40.13;;;20.40;;
11608;SDS011;5860;52.018;8.536;2023-03-20T00:17:16;48.40;;;22.10;;
11608;SDS011;5860;52.018;8.536;2023-03-20T00:19:46;46.23;;;21.97;;
11608;SDS011;5860;52.018;8.536;2023-03-20T00:22:13;45.67;;;21.63;;
11608;SDS011;5860;52.018;8.536;2023-03-20T00:24:42;40.23;;;20.93;;
11608;SDS011;5860;52.018;8.536;2023-03-20T00:27:11;46.03;;;22.83;;
11608;SDS011;5860;52.018;8.536;2023-03-20T00:29:39;43.40;;;21.67;;
11608;SDS011;5860;52.018;8.536;2023-03-20T00:32:13;43.83;;;20.83;;
11608;SDS011;5860;52.018;8.536;2023-03-20T00:34:40;48.67;;;22.67;;
11608;SDS011;5860;52.018;8.536;2023-03-20T00:37:08;47.93;;;22.50;;
11608;SDS011;5860;52.018;8.536;2023-03-20T00:39:37;54.80;;;25.27;;
11608;SDS011;5860;52.018;8.536;2023-03-20T00:42:05;56.63;;;27.80;;
11608;SDS011;5860;52.018;8.536;2023-03-20T00:44:41;59.63;;;27.33;;
11608;SDS011;5860;52.018;8.536;2023-03-20T00:47:18;62.13;;;29.93;;
11608;SDS011;5860;52.018;8.536;2023-03-20T00:49:47;62.87;;;29.83;;
11608;SDS011;5860;52.018;8.536;2023-03-20T00:52:16;64.30;;;31.80;;
11608;SDS011;5860;52.018;8.536;2023-03-20T00:54:44;64.67;;;32.20;;
11608;SDS011;5860;52.018;8.536;2023-03-20T00:57:13;67.27;;;31.80;;
11608;SDS011;5860;52.018;8.536;2023-03-20T00:59:50;60.73;;;31.17;;
11608;SDS011;5860;52.018;8.536;2023-03-20T01:02:22;65.27;;;30.37;;
11608;SDS011;5860;52.018;8.536;2023-03-20T01:04:54;60.50;;;30.80;;
11608;SDS011;5860;52.018;8.536;2023-03-20T01:07:22;61.33;;;30.50;;
11608;SDS011;5860;52.018;8.536;2023-03-20T01:09:51;67.20;;;32.03;;
11608;SDS011;5860;52.018;8.536;2023-03-20T01:12:17;65.03;;;29.90;;
11608;SDS011;5860;52.018;8.536;2023-03-20T01:14:45;65.70;;;29.67;;
11608;SDS011;5860;52.018;8.536;2023-03-20T01:17:24;58.07;;;28.57;;
11608;SDS011;5860;52.018;8.536;2023-03-20T01:19:54;63.77;;;30.00;;
11608;SDS011;5860;52.018;8.536;2023-03-20T01:22:21;61.30;;;31.17;;
11608;SDS011;5860;52.018;8.536;2023-03-20T01:24:48;62.17;;;29.70;;
11608;SDS011;5860;52.018;8.536;2023-03-20T01:27:18;58.70;;;30.50;;
11608;SDS011;5860;52.018;8.536;2023-03-20T01:29:49;59.40;;;30.63;;
11608;SDS011;5860;52.018;8.536;2023-03-20T01:32:16;62.73;;;31.00;;
11608;SDS011;5860;52.018;8.536;2023-03-20T01:34:44;60.30;;;28.80;;
11608;SDS011;5860;52.018;8.536;2023-03-20T01:37:25;56.37;;;29.27;;
11608;SDS011;5860;52.018;8.536;2023-03-20T01:39:54;64.93;;;31.93;;
11608;SDS011;5860;52.018;8.536;2023-03-20T01:42:21;68.33;;;31.07;;
11608;SDS011;5860;52.018;8.536;2023-03-20T01:44:49;64.80;;;31.53;;
11608;SDS011;5860;52.018;8.536;2023-03-20T01:47:18;65.63;;;32.10;;
11608;SDS011;5860;52.018;8.536;2023-03-20T01:52:44;74.93;;;32.80;;
11608;SDS011;5860;52.018;8.536;2023-03-20T01:55:14;68.30;;;33.50;;
11608;SDS011;5860;52.018;8.536;2023-03-20T01:57:41;69.03;;;32.83;;
11608;SDS011;5860;52.018;8.536;2023-03-20T02:00:15;74.00;;;31.17;;
11608;SDS011;5860;52.018;8.536;2023-03-20T02:02:45;68.60;;;33.23;;
11608;SDS011;5860;52.018;8.536;2023-03-20T02:05:14;65.43;;;31.73;;
11608;SDS011;5860;52.018;8.536;2023-03-20T02:07:46;73.33;;;32.73;;
11608;SDS011;5860;52.018;8.536;2023-03-20T02:10:18;69.43;;;31.97;;
11608;SDS011;5860;52.018;8.536;2023-03-20T02:12:46;65.23;;;31.63;;
11608;SDS011;5860;52.018;8.536;2023-03-20T02:15:13;66.33;;;30.40;;
11608;SDS011;5860;52.018;8.536;2023-03-20T02:17:42;69.30;;;31.80;;
11608;SDS011;5860;52.018;8.536;2023-03-20T02:38:07;63.27;;;29.23;;
11608;SDS011;5860;52.018;8.536;2023-03-20T02:43:05;66.77;;;28.77;;
11608;SDS011;5860;52.018;8.536;2023-03-20T02:45:58;62.33;;;27.53;;
11608;SDS011;5860;52.018;8.536;2023-03-20T03:01:55;60.23;;;28.40;;
11608;SDS011;5860;52.018;8.536;2023-03-20T03:04:39;59.87;;;29.00;;
11608;SDS011;5860;52.018;8.536;2023-03-20T03:07:11;59.43;;;28.10;;
11608;SDS011;5860;52.018;8.536;2023-03-20T03:09:41;60.00;;;28.50;;
11608;SDS011;5860;52.018;8.536;2023-03-20T03:12:58;53.20;;;25.77;;
11608;SDS011;5860;52.018;8.536;2023-03-20T03:15:29;62.27;;;27.20;;
11608;SDS011;5860;52.018;8.536;2023-03-20T03:17:58;62.83;;;29.83;;
11608;SDS011;5860;52.018;8.536;2023-03-20T03:20:27;58.80;;;26.23;;
11608;SDS011;5860;52.018;8.536;2023-03-20T03:22:57;57.37;;;28.07;;
11608;SDS011;5860;52.018;8.536;2023-03-20T03:25:26;57.77;;;29.43;;
11608;SDS011;5860;52.018;8.536;2023-03-20T03:28:22;60.30;;;29.07;;
11608;SDS011;5860;52.018;8.536;2023-03-20T03:31:15;58.70;;;27.40;;
11608;SDS011;5860;52.018;8.536;2023-03-20T03:33:44;51.40;;;24.33;;
11608;SDS011;5860;52.018;8.536;2023-03-20T03:42:29;55.63;;;29.50;;
11608;SDS011;5860;52.018;8.536;2023-03-20T03:45:28;57.47;;;28.07;;
11608;SDS011;5860;52.018;8.536;2023-03-20T03:48:18;54.27;;;28.80;;
11608;SDS011;5860;52.018;8.536;2023-03-20T03:50:52;54.20;;;27.77;;
11608;SDS011;5860;52.018;8.536;2023-03-20T03:53:24;54.83;;;29.90;;
11608;SDS011;5860;52.018;8.536;2023-03-20T03:56:03;51.57;;;27.50;;
11608;SDS011;5860;52.018;8.536;2023-03-20T03:58:45;49.80;;;27.43;;
11608;SDS011;5860;52.018;8.536;2023-03-20T04:01:15;56.43;;;29.30;;
11608;SDS011;5860;52.018;8.536;2023-03-20T04:03:50;49.63;;;28.03;;
11608;SDS011;5860;52.018;8.536;2023-03-20T04:06:25;54.77;;;30.07;;
11608;SDS011;5860;52.018;8.536;2023-03-20T04:08:53;53.30;;;27.97;;
11608;SDS011;5860;52.018;8.536;2023-03-20T04:11:22;55.57;;;29.97;;
11608;SDS011;5860;52.018;8.536;2023-03-20T04:13:54;52.23;;;28.73;;
11608;SDS011;5860;52.018;8.536;2023-03-20T04:16:22;51.50;;;29.20;;
11608;SDS011;5860;52.018;8.536;2023-03-20T04:18:50;49.80;;;29.20;;
11608;SDS011;5860;52.018;8.536;2023-03-20T04:21:17;54.57;;;29.03;;
11608;SDS011;5860;52.018;8.536;2023-03-20T04:23:45;54.20;;;30.23;;
11608;SDS011;5860;52.018;8.536;2023-03-20T04:26:17;54.90;;;29.47;;
11608;SDS011;5860;52.018;8.536;2023-03-20T04:28:44;53.50;;;29.40;;
11608;SDS011;5860;52.018;8.536;2023-03-20T04:31:12;52.13;;;29.67;;
11608;SDS011;5860;52.018;8.536;2023-03-20T04:33:39;47.40;;;28.70;;
11608;SDS011;5860;52.018;8.536;2023-03-20T04:36:07;46.90;;;27.67;;
11608;SDS011;5860;52.018;8.536;2023-03-20T04:38:35;49.60;;;28.43;;
11608;SDS011;5860;52.018;8.536;2023-03-20T04:41:02;50.83;;;29.80;;
11608;SDS011;5860;52.018;8.536;2023-03-20T04:43:33;51.87;;;29.07;;
11608;SDS011;5860;52.018;8.536;2023-03-20T04:46:00;51.67;;;29.13;;
11608;SDS011;5860;52.018;8.536;2023-03-20T04:48:32;47.73;;;28.27;;
11608;SDS011;5860;52.018;8.536;2023-03-20T04:50:59;47.17;;;27.17;;
11608;SDS011;5860;52.018;8.536;2023-03-20T04:53:27;44.43;;;26.30;;
11608;SDS011;5860;52.018;8.536;2023-03-20T04:55:54;42.37;;;23.83;;
11608;SDS011;5860;52.018;8.536;2023-03-20T04:58:21;39.53;;;24.03;;
11608;SDS011;5860;52.018;8.536;2023-03-20T05:00:50;42.17;;;25.43;;
11608;SDS011;5860;52.018;8.536;2023-03-20T05:03:16;40.47;;;24.23;;
11608;SDS011;5860;52.018;8.536;2023-03-20T05:05:49;39.30;;;24.93;;
11608;SDS011;5860;52.018;8.536;2023-03-20T05:08:16;42.03;;;24.73;;
11608;SDS011;5860;52.018;8.536;2023-03-20T05:10:43;41.63;;;25.17;;
11608;SDS011;5860;52.018;8.536;2023-03-20T05:13:10;39.83;;;24.93;;
11608;SDS011;5860;52.018;8.536;2023-03-20T05:15:37;41.73;;;25.03;;
11608;SDS011;5860;52.018;8.536;2023-03-20T05:18:04;39.50;;;24.60;;
11608;SDS011;5860;52.018;8.536;2023-03-20T05:20:31;41.13;;;24.63;;
11608;SDS011;5860;52.018;8.536;2023-03-20T05:22:58;40.27;;;24.70;;
11608;SDS011;5860;52.018;8.536;2023-03-20T05:25:24;38.27;;;24.70;;
11608;SDS011;5860;52.018;8.536;2023-03-20T05:27:52;41.90;;;25.33;;
11608;SDS011;5860;52.018;8.536;2023-03-20T05:30:22;43.77;;;25.70;;
11608;SDS011;5860;52.018;8.536;2023-03-20T05:32:50;41.73;;;24.70;;
11608;SDS011;5860;52.018;8.536;2023-03-20T05:35:18;41.80;;;25.40;;
11608;SDS011;5860;52.018;8.536;2023-03-20T05:37:45;36.03;;;23.17;;
11608;SDS011;5860;52.018;8.536;2023-03-20T05:40:15;43.67;;;25.47;;
11608;SDS011;5860;52.018;8.536;2023-03-20T05:42:42;37.70;;;23.50;;
11608;SDS011;5860;52.018;8.536;2023-03-20T05:45:11;39.33;;;25.83;;
11608;SDS011;5860;52.018;8.536;2023-03-20T05:47:38;36.93;;;23.83;;
11608;SDS011;5860;52.018;8.536;2023-03-20T05:50:05;41.50;;;23.47;;
11608;SDS011;5860;52.018;8.536;2023-03-20T05:52:32;38.83;;;23.43;;
11608;SDS011;5860;52.018;8.536;2023-03-20T05:54:59;43.80;;;25.43;;
11608;SDS011;5860;52.018;8.536;2023-03-20T05:57:26;41.53;;;26.13;;
11608;SDS011;5860;52.018;8.536;2023-03-20T05:59:53;37.87;;;25.00;;
11608;SDS011;5860;52.018;8.536;2023-03-20T06:02:20;41.23;;;24.93;;
11608;SDS011;5860;52.018;8.536;2023-03-20T06:04:50;40.87;;;24.93;;
11608;SDS011;5860;52.018;8.536;2023-03-20T06:07:17;36.47;;;24.47;;
11608;SDS011;5860;52.018;8.536;2023-03-20T06:09:45;40.70;;;23.57;;
11608;SDS011;5860;52.018;8.536;2023-03-20T06:12:12;35.10;;;23.17;;
11608;SDS011;5860;52.018;8.536;2023-03-20T06:14:39;35.93;;;23.00;;
11608;SDS011;5860;52.018;8.536;2023-03-20T06:17:06;37.43;;;22.27;;
11608;SDS011;5860;52.018;8.536;2023-03-20T06:19:33;40.70;;;24.87;;
11608;SDS011;5860;52.018;8.536;2023-03-20T06:22:04;35.50;;;22.10;;
11608;SDS011;5860;52.018;8.536;2023-03-20T06:24:32;36.47;;;23.47;;
11608;SDS011;5860;52.018;8.536;2023-03-20T06:26:59;33.30;;;21.70;;
11608;SDS011;5860;52.018;8.536;2023-03-20T06:29:26;33.97;;;21.57;;
11608;SDS011;5860;52.018;8.536;2023-03-20T06:31:54;30.43;;;20.67;;
11608;SDS011;5860;52.018;8.536;2023-03-20T06:34:21;33.23;;;21.77;;
11608;SDS011;5860;52.018;8.536;2023-03-20T06:36:48;32.53;;;20.97;;
11608;SDS011;5860;52.018;8.536;2023-03-20T06:39:15;34.87;;;22.77;;
11608;SDS011;5860;52.018;8.536;2023-03-20T06:41:42;36.13;;;23.30;;
11608;SDS011;5860;52.018;8.536;2023-03-20T06:44:09;36.73;;;23.23;;
11608;SDS011;5860;52.018;8.536;2023-03-20T06:46:36;40.17;;;23.43;;
11608;SDS011;5860;52.018;8.536;2023-03-20T06:49:03;38.60;;;23.10;;
11608;SDS011;5860;52.018;8.536;2023-03-20T06:51:31;37.47;;;23.73;;
11608;SDS011;5860;52.018;8.536;2023-03-20T06:54:01;36.23;;;23.90;;
11608;SDS011;5860;52.018;8.536;2023-03-20T06:56:32;35.63;;;23.63;;
11608;SDS011;5860;52.018;8.536;2023-03-20T06:58:59;36.47;;;23.80;;
11608;SDS011;5860;52.018;8.536;2023-03-20T07:01:26;37.60;;;23.63;;
11608;SDS011;5860;52.018;8.536;2023-03-20T07:03:54;37.53;;;23.03;;
11608;SDS011;5860;52.018;8.536;2023-03-20T07:06:21;37.13;;;23.30;;
11608;SDS011;5860;52.018;8.536;2023-03-20T07:08:50;37.13;;;21.83;;
11608;SDS011;5860;52.018;8.536;2023-03-20T07:11:18;37.67;;;23.03;;
11608;SDS011;5860;52.018;8.536;2023-03-20T07:13:45;41.40;;;25.83;;
11608;SDS011;5860;52.018;8.536;2023-03-20T07:16:15;36.83;;;23.10;;
11608;SDS011;5860;52.018;8.536;2023-03-20T07:18:42;37.00;;;24.00;;
11608;SDS011;5860;52.018;8.536;2023-03-20T07:21:09;42.57;;;25.80;;
11608;SDS011;5860;52.018;8.536;2023-03-20T07:23:43;36.57;;;24.17;;
11608;SDS011;5860;52.018;8.536;2023-03-20T07:26:11;34.83;;;24.33;;
11608;SDS011;5860;52.018;8.536;2023-03-20T07:28:41;35.97;;;23.57;;
11608;SDS011;5860;52.018;8.536;2023-03-20T07:31:09;35.23;;;23.00;;
11608;SDS011;5860;52.018;8.536;2023-03-20T07:33:46;31.13;;;21.67;;
11608;SDS011;5860;52.018;8.536;2023-03-20T07:36:13;33.63;;;22.93;;
11608;SDS011;5860;52.018;8.536;2023-03-20T07:38:40;32.07;;;22.00;;
11608;SDS011;5860;52.018;8.536;2023-03-20T07:41:07;30.10;;;20.17;;
11608;SDS011;5860;52.018;8.536;2023-03-20T07:43:35;28.33;;;18.90;;
11608;SDS011;5860;52.018;8.536;2023-03-20T07:46:02;26.73;;;18.53;;
11608;SDS011;5860;52.018;8.536;2023-03-20T07:48:34;27.20;;;18.67;;
11608;SDS011;5860;52.018;8.536;2023-03-20T07:51:02;23.27;;;17.23;;
11608;SDS011;5860;52.018;8.536;2023-03-20T07:53:29;25.80;;;17.73;;
11608;SDS011;5860;52.018;8.536;2023-03-20T07:55:56;23.40;;;17.37;;
11608;SDS011;5860;52.018;8.536;2023-03-20T07:58:23;24.90;;;17.17;;
11608;SDS011;5860;52.018;8.536;2023-03-20T08:00:51;25.23;;;18.00;;
11608;SDS011;5860;52.018;8.536;2023-03-20T08:03:21;23.37;;;17.30;;
11608;SDS011;5860;52.018;8.536;2023-03-20T08:05:49;23.67;;;15.90;;
11608;SDS011;5860;52.018;8.536;2023-03-20T08:08:16;24.73;;;17.50;;
11608;SDS011;5860;52.018;8.536;2023-03-20T08:10:43;23.67;;;16.50;;
11608;SDS011;5860;52.018;8.536;2023-03-20T08:13:11;26.03;;;17.23;;
11608;SDS011;5860;52.018;8.536;2023-03-20T08:15:38;22.77;;;16.80;;
11608;SDS011;5860;52.018;8.536;2023-03-20T08:18:05;23.60;;;16.30;;
11608;SDS011;5860;52.018;8.536;2023-03-20T08:20:33;20.93;;;15.83;;
11608;SDS011;5860;52.018;8.536;2023-03-20T08:22:59;22.67;;;16.23;;
11608;SDS011;5860;52.018;8.536;2023-03-20T08:25:27;22.23;;;16.20;;
11608;SDS011;5860;52.018;8.536;2023-03-20T08:27:59;21.57;;;15.40;;
11608;SDS011;5860;52.018;8.536;2023-03-20T08:30:27;22.70;;;16.07;;
11608;SDS011;5860;52.018;8.536;2023-03-20T08:32:54;20.83;;;15.20;;
11608;SDS011;5860;52.018;8.536;2023-03-20T08:35:23;20.90;;;15.60;;
11608;SDS011;5860;52.018;8.536;2023-03-20T08:37:58;18.47;;;14.20;;
11608;SDS011;5860;52.018;8.536;2023-03-20T08:40:26;19.37;;;14.93;;
11608;SDS011;5860;52.018;8.536;2023-03-20T08:42:53;17.87;;;13.40;;
11608;SDS011;5860;52.018;8.536;2023-03-20T08:45:20;20.23;;;13.53;;
11608;SDS011;5860;52.018;8.536;2023-03-20T08:47:51;16.37;;;10.63;;
11608;SDS011;5860;52.018;8.536;2023-03-20T08:50:19;11.60;;;9.33;;
11608;SDS011;5860;52.018;8.536;2023-03-20T08:52:46;14.57;;;10.47;;
11608;SDS011;5860;52.018;8.536;2023-03-20T08:55:14;11.70;;;8.50;;
11608;SDS011;5860;52.018;8.536;2023-03-20T08:57:42;10.60;;;7.43;;
11608;SDS011;5860;52.018;8.536;2023-03-20T09:00:12;9.60;;;6.83;;
11608;SDS011;5860;52.018;8.536;2023-03-20T09:02:41;10.43;;;7.57;;
11608;SDS011;5860;52.018;8.536;2023-03-20T09:05:09;11.97;;;8.53;;
11608;SDS011;5860;52.018;8.536;2023-03-20T09:07:36;10.23;;;7.27;;
11608;SDS011;5860;52.018;8.536;2023-03-20T09:10:03;9.33;;;7.43;;
11608;SDS011;5860;52.018;8.536;2023-03-20T09:12:31;11.93;;;8.17;;
11608;SDS011;5860;52.018;8.536;2023-03-20T09:14:58;12.07;;;8.87;;
11608;SDS011;5860;52.018;8.536;2023-03-20T09:17:27;12.33;;;9.37;;
11608;SDS011;5860;52.018;8.536;2023-03-20T09:19:56;13.07;;;9.80;;
11608;SDS011;5860;52.018;8.536;2023-03-20T09:22:23;14.80;;;9.53;;
11608;SDS011;5860;52.018;8.536;2023-03-20T09:24:53;16.90;;;11.63;;
11608;SDS011;5860;52.018;8.536;2023-03-20T09:27:20;13.70;;;11.27;;
11608;SDS011;5860;52.018;8.536;2023-03-20T09:29:47;21.97;;;11.10;;
11608;SDS011;5860;52.018;8.536;2023-03-20T09:32:15;15.30;;;11.23;;
11608;SDS011;5860;52.018;8.536;2023-03-20T09:34:42;18.27;;;11.30;;
11608;SDS011;5860;52.018;8.536;2023-03-20T09:37:09;15.10;;;12.03;;
11608;SDS011;5860;52.018;8.536;2023-03-20T09:39:36;15.10;;;10.97;;
11608;SDS011;5860;52.018;8.536;2023-03-20T09:45:04;14.87;;;11.50;;
11608;SDS011;5860;52.018;8.536;2023-03-20T09:53:48;16.13;;;11.07;;
11608;SDS011;5860;52.018;8.536;2023-03-20T09:56:20;15.80;;;11.40;;
11608;SDS011;5860;52.018;8.536;2023-03-20T09:58:54;15.03;;;11.67;;
11608;SDS011;5860;52.018;8.536;2023-03-20T10:01:32;17.20;;;12.43;;
11608;SDS011;5860;52.018;8.536;2023-03-20T10:04:10;16.13;;;12.57;;
11608;SDS011;5860;52.018;8.536;2023-03-20T10:06:37;17.53;;;12.00;;
11608;SDS011;5860;52.018;8.536;2023-03-20T10:09:11;19.17;;;11.97;;
11608;SDS011;5860;52.018;8.536;2023-03-20T10:14:49;16.27;;;11.50;;
11608;SDS011;5860;52.018;8.536;2023-03-20T10:20:35;14.10;;;10.27;;
11608;SDS011;5860;52.018;8.536;2023-03-20T10:25:52;15.17;;;9.57;;
11608;SDS011;5860;52.018;8.536;2023-03-20T10:28:34;14.07;;;10.00;;
11608;SDS011;5860;52.018;8.536;2023-03-20T10:42:20;11.13;;;8.23;;
11608;SDS011;5860;52.018;8.536;2023-03-20T10:47:59;15.37;;;7.80;;
11608;SDS011;5860;52.018;8.536;2023-03-20T10:50:34;10.43;;;7.50;;
11608;SDS011;5860;52.018;8.536;2023-03-20T10:53:09;9.57;;;7.03;;
11608;SDS011;5860;52.018;8.536;2023-03-20T10:55:46;12.07;;;6.93;;
11608;SDS011;5860;52.018;8.536;2023-03-20T10:58:16;8.77;;;6.73;;
11608;SDS011;5860;52.018;8.536;2023-03-20T11:00:49;8.07;;;6.17;;
11608;SDS011;5860;52.018;8.536;2023-03-20T11:03:19;10.83;;;6.00;;
11608;SDS011;5860;52.018;8.536;2023-03-20T11:05:56;10.30;;;6.50;;
11608;SDS011;5860;52.018;8.536;2023-03-20T11:08:36;8.77;;;6.00;;
11608;SDS011;5860;52.018;8.536;2023-03-20T11:11:06;10.90;;;6.20;;
11608;SDS011;5860;52.018;8.536;2023-03-20T11:13:35;7.57;;;5.63;;
11608;SDS011;5860;52.018;8.536;2023-03-20T11:18:57;13.47;;;8.47;;
11608;SDS011;5860;52.018;8.536;2023-03-20T11:21:46;8.17;;;6.17;;
11608;SDS011;5860;52.018;8.536;2023-03-20T11:24:23;11.33;;;6.97;;
11608;SDS011;5860;52.018;8.536;2023-03-20T11:26:51;8.53;;;6.13;;
11608;SDS011;5860;52.018;8.536;2023-03-20T11:29:21;10.43;;;6.57;;
11608;SDS011;5860;52.018;8.536;2023-03-20T11:32:09;13.73;;;7.30;;
11608;SDS011;5860;52.018;8.536;2023-03-20T11:34:54;8.33;;;7.13;;
11608;SDS011;5860;52.018;8.536;2023-03-20T11:37:25;14.33;;;8.00;;
11608;SDS011;5860;52.018;8.536;2023-03-20T11:40:21;9.73;;;7.43;;
11608;SDS011;5860;52.018;8.536;2023-03-20T11:45:21;12.93;;;8.57;;
11608;SDS011;5860;52.018;8.536;2023-03-20T11:47:49;11.33;;;7.73;;
11608;SDS011;5860;52.018;8.536;2023-03-20T11:52:51;10.47;;;7.97;;
11608;SDS011;5860;52.018;8.536;2023-03-20T11:55:23;15.60;;;8.13;;
11608;SDS011;5860;52.018;8.536;2023-03-20T11:57:56;13.23;;;7.50;;
11608;SDS011;5860;52.018;8.536;2023-03-20T12:00:29;9.93;;;7.53;;
11608;SDS011;5860;52.018;8.536;2023-03-20T12:06:03;8.60;;;6.63;;
11608;SDS011;5860;52.018;8.536;2023-03-20T12:08:35;10.93;;;6.77;;
11608;SDS011;5860;52.018;8.536;2023-03-20T12:11:07;13.43;;;6.57;;
11608;SDS011;5860;52.018;8.536;2023-03-20T12:14:06;12.57;;;6.83;;
11608;SDS011;5860;52.018;8.536;2023-03-20T12:16:50;6.63;;;5.47;;
11608;SDS011;5860;52.018;8.536;2023-03-20T12:19:21;9.23;;;5.60;;
11608;SDS011;5860;52.018;8.536;2023-03-20T12:22:02;9.20;;;5.63;;
11608;SDS011;5860;52.018;8.536;2023-03-20T12:24:42;9.20;;;5.27;;
11608;SDS011;5860;52.018;8.536;2023-03-20T12:27:22;8.93;;;5.97;;
11608;SDS011;5860;52.018;8.536;2023-03-20T12:30:19;6.83;;;5.00;;
11608;SDS011;5860;52.018;8.536;2023-03-20T12:33:38;7.67;;;5.40;;
11608;SDS011;5860;52.018;8.536;2023-03-20T12:35:55;8.17;;;5.70;;
11608;SDS011;5860;52.018;8.536;2023-03-20T12:38:30;9.37;;;5.60;;
11608;SDS011;5860;52.018;8.536;2023-03-20T13:00:20;10.07;;;4.57;;
11608;SDS011;5860;52.018;8.536;2023-03-20T13:02:53;8.33;;;4.27;;
11608;SDS011;5860;52.018;8.536;2023-03-20T13:08:33;9.07;;;3.87;;
11608;SDS011;5860;52.018;8.536;2023-03-20T13:13:56;6.07;;;4.00;;
11608;SDS011;5860;52.018;8.536;2023-03-20T13:16:35;5.83;;;3.80;;
11608;SDS011;5860;52.018;8.536;2023-03-20T13:19:37;7.63;;;3.33;;
11608;SDS011;5860;52.018;8.536;2023-03-20T13:22:41;6.87;;;3.17;;
11608;SDS011;5860;52.018;8.536;2023-03-20T13:28:11;5.20;;;3.23;;
11608;SDS011;5860;52.018;8.536;2023-03-20T13:31:18;4.73;;;2.60;;
11608;SDS011;5860;52.018;8.536;2023-03-20T13:34:19;6.77;;;2.67;;
11608;SDS011;5860;52.018;8.536;2023-03-20T13:39:57;6.00;;;3.00;;
11608;SDS011;5860;52.018;8.536;2023-03-20T13:42:51;7.37;;;2.87;;
11608;SDS011;5860;52.018;8.536;2023-03-20T13:45:29;5.37;;;2.97;;
11608;SDS011;5860;52.018;8.536;2023-03-20T13:48:11;4.83;;;2.63;;
11608;SDS011;5860;52.018;8.536;2023-03-20T13:56:34;4.13;;;2.57;;
11608;SDS011;5860;52.018;8.536;2023-03-20T14:01:58;7.50;;;3.00;;
11608;SDS011;5860;52.018;8.536;2023-03-20T14:04:33;9.90;;;2.93;;
11608;SDS011;5860;52.018;8.536;2023-03-20T14:07:00;6.23;;;2.90;;
11608;SDS011;5860;52.018;8.536;2023-03-20T14:09:29;8.30;;;2.90;;
11608;SDS011;5860;52.018;8.536;2023-03-20T14:12:03;4.43;;;2.97;;
11608;SDS011;5860;52.018;8.536;2023-03-20T14:14:39;7.03;;;2.90;;
11608;SDS011;5860;52.018;8.536;2023-03-20T14:17:28;6.50;;;2.70;;
11608;SDS011;5860;52.018;8.536;2023-03-20T14:19:57;5.00;;;2.70;;
11608;SDS011;5860;52.018;8.536;2023-03-20T14:22:55;6.37;;;2.90;;
11608;SDS011;5860;52.018;8.536;2023-03-20T14:25:23;4.77;;;3.00;;
11608;SDS011;5860;52.018;8.536;2023-03-20T14:28:05;6.43;;;2.57;;
11608;SDS011;5860;52.018;8.536;2023-03-20T14:30:37;5.87;;;3.60;;
11608;SDS011;5860;52.018;8.536;2023-03-20T14:35:42;9.43;;;3.30;;
11608;SDS011;5860;52.018;8.536;2023-03-20T14:40:58;7.33;;;3.00;;
11608;SDS011;5860;52.018;8.536;2023-03-20T14:43:53;6.97;;;3.50;;
11608;SDS011;5860;52.018;8.536;2023-03-20T14:49:36;5.23;;;3.93;;
11608;SDS011;5860;52.018;8.536;2023-03-20T14:54:52;8.90;;;3.97;;
11608;SDS011;5860;52.018;8.536;2023-03-20T14:57:32;9.13;;;4.03;;
11608;SDS011;5860;52.018;8.536;2023-03-20T15:00:21;7.27;;;4.57;;
11608;SDS011;5860;52.018;8.536;2023-03-20T15:02:56;7.07;;;4.57;;
11608;SDS011;5860;52.018;8.536;2023-03-20T15:05:34;8.50;;;4.90;;
11608;SDS011;5860;52.018;8.536;2023-03-20T15:08:20;5.87;;;4.50;;
11608;SDS011;5860;52.018;8.536;2023-03-20T15:10:54;7.53;;;5.00;;
11608;SDS011;5860;52.018;8.536;2023-03-20T15:13:27;10.23;;;5.43;;
11608;SDS011;5860;52.018;8.536;2023-03-20T15:15:57;7.10;;;4.77;;
11608;SDS011;5860;52.018;8.536;2023-03-20T15:21:13;8.97;;;5.20;;
11608;SDS011;5860;52.018;8.536;2023-03-20T15:24:00;8.77;;;4.80;;
11608;SDS011;5860;52.018;8.536;2023-03-20T15:26:28;8.47;;;4.93;;
11608;SDS011;5860;52.018;8.536;2023-03-20T15:29:02;7.37;;;4.80;;
11608;SDS011;5860;52.018;8.536;2023-03-20T15:31:37;10.83;;;4.63;;
11608;SDS011;5860;52.018;8.536;2023-03-20T15:34:07;8.67;;;5.07;;
11608;SDS011;5860;52.018;8.536;2023-03-20T15:36:40;12.10;;;4.80;;
11608;SDS011;5860;52.018;8.536;2023-03-20T15:41:38;7.37;;;4.97;;
11608;SDS011;5860;52.018;8.536;2023-03-20T15:44:16;8.30;;;4.97;;
11608;SDS011;5860;52.018;8.536;2023-03-20T15:46:56;7.53;;;4.60;;
11608;SDS011;5860;52.018;8.536;2023-03-20T15:49:31;6.87;;;4.97;;
11608;SDS011;5860;52.018;8.536;2023-03-20T15:51:59;6.37;;;5.00;;
11608;SDS011;5860;52.018;8.536;2023-03-20T15:54:31;5.70;;;4.40;;
11608;SDS011;5860;52.018;8.536;2023-03-20T15:56:59;10.00;;;4.73;;
11608;SDS011;5860;52.018;8.536;2023-03-20T15:59:29;7.60;;;4.73;;
11608;SDS011;5860;52.018;8.536;2023-03-20T16:01:59;9.43;;;4.10;;
11608;SDS011;5860;52.018;8.536;2023-03-20T16:04:27;6.83;;;4.40;;
11608;SDS011;5860;52.018;8.536;2023-03-20T16:06:57;6.43;;;4.17;;
11608;SDS011;5860;52.018;8.536;2023-03-20T16:09:26;8.30;;;3.93;;
11608;SDS011;5860;52.018;8.536;2023-03-20T16:11:59;7.47;;;3.70;;
11608;SDS011;5860;52.018;8.536;2023-03-20T16:14:29;4.60;;;3.00;;
11608;SDS011;5860;52.018;8.536;2023-03-20T16:16:59;5.57;;;3.43;;
11608;SDS011;5860;52.018;8.536;2023-03-20T16:19:28;6.10;;;3.47;;
11608;SDS011;5860;52.018;8.536;2023-03-20T16:21:57;7.47;;;3.40;;
11608;SDS011;5860;52.018;8.536;2023-03-20T16:24:28;4.93;;;3.30;;
11608;SDS011;5860;52.018;8.536;2023-03-20T16:26:56;5.90;;;3.50;;
11608;SDS011;5860;52.018;8.536;2023-03-20T16:29:24;7.03;;;3.20;;
11608;SDS011;5860;52.018;8.536;2023-03-20T16:32:03;9.40;;;4.20;;
11608;SDS011;5860;52.018;8.536;2023-03-20T16:34:34;5.40;;;3.43;;
11608;SDS011;5860;52.018;8.536;2023-03-20T16:37:08;6.83;;;4.13;;
11608;SDS011;5860;52.018;8.536;2023-03-20T16:40:02;6.83;;;3.67;;
11608;SDS011;5860;52.018;8.536;2023-03-20T16:42:31;9.20;;;3.60;;
11608;SDS011;5860;52.018;8.536;2023-03-20T16:44:58;7.37;;;4.47;;
11608;SDS011;5860;52.018;8.536;2023-03-20T16:47:34;7.40;;;4.30;;
11608;SDS011;5860;52.018;8.536;2023-03-20T16:50:10;7.87;;;3.90;;
11608;SDS011;5860;52.018;8.536;2023-03-20T16:52:39;8.50;;;4.10;;
11608;SDS011;5860;52.018;8.536;2023-03-20T16:55:14;10.60;;;4.17;;
11608;SDS011;5860;52.018;8.536;2023-03-20T16:57:45;7.03;;;4.67;;
11608;SDS011;5860;52.018;8.536;2023-03-20T17:00:28;9.00;;;4.93;;
11608;SDS011;5860;52.018;8.536;2023-03-20T17:03:14;12.07;;;5.27;;
11608;SDS011;5860;52.018;8.536;2023-03-20T17:05:52;11.00;;;5.37;;
11608;SDS011;5860;52.018;8.536;2023-03-20T17:08:26;9.23;;;5.13;;
11608;SDS011;5860;52.018;8.536;2023-03-20T17:10:57;8.37;;;5.07;;
11608;SDS011;5860;52.018;8.536;2023-03-20T17:13:28;9.93;;;5.43;;
11608;SDS011;5860;52.018;8.536;2023-03-20T17:15:55;9.43;;;5.53;;
11608;SDS011;5860;52.018;8.536;2023-03-20T17:18:22;10.50;;;6.40;;
11608;SDS011;5860;52.018;8.536;2023-03-20T17:20:49;9.20;;;6.57;;
11608;SDS011;5860;52.018;8.536;2023-03-20T17:23:18;10.97;;;7.70;;
11608;SDS011;5860;52.018;8.536;2023-03-20T17:25:46;8.77;;;6.43;;
11608;SDS011;5860;52.018;8.536;2023-03-20T17:28:19;8.87;;;6.03;;
11608;SDS011;5860;52.018;8.536;2023-03-20T17:30:49;11.00;;;7.13;;
11608;SDS011;5860;52.018;8.536;2023-03-20T17:33:17;7.73;;;6.43;;
11608;SDS011;5860;52.018;8.536;2023-03-20T17:35:46;9.03;;;6.60;;